Time;durP1;ratioP1;P1;durP2;ratioP2;P2;SDS_P1;SDS_P2;PMS_P1;PMS_P2;Temp;Humidity;BMP_temperature;BMP_pressure;BME280_temperature;BME280_humidity;BME280_pressure;Samples;Min_cycle;Max_cycle;Signal;HPM_P1;HPM_P2
2021/07/14 00:00:12;;;;;;;6.93;2.90;;;21.40;87.60;;;;;;5098431;28;20115;-71
2021/07/14 00:02:38;;;;;;;5.32;2.40;;;21.50;87.60;;;;;;5098028;28;20051;-71
2021/07/14 00:05:13;;;;;;;8.02;3.03;;;21.50;87.60;;;;;;5098008;28;20063;-71
2021/07/14 00:07:38;;;;;;;8.70;2.97;;;21.60;87.60;;;;;;5097984;28;20420;-71
2021/07/14 00:10:26;;;;;;;5.55;1.85;;;21.60;86.30;;;;;;5098206;28;20039;-71
2021/07/14 00:13:00;;;;;;;4.28;1.60;;;21.50;82.30;;;;;;5097844;28;20024;-71
2021/07/14 00:23:44;;;;;;;9.35;2.38;;;20.70;81.00;;;;;;5088984;28;20494;-71
2021/07/14 00:26:10;;;;;;;6.53;2.20;;;20.60;82.20;;;;;;5097909;28;20039;-71
2021/07/14 00:28:36;;;;;;;5.03;2.22;;;20.60;82.30;;;;;;5097905;28;20312;-71
2021/07/14 00:31:05;;;;;;;4.85;1.65;;;20.60;81.20;;;;;;5097859;28;20049;-71
2021/07/14 00:33:31;;;;;;;5.13;2.22;;;20.60;79.50;;;;;;5097386;28;20028;-71
2021/07/14 00:35:58;;;;;;;4.50;1.80;;;20.50;80.10;;;;;;5097713;28;20111;-71
2021/07/14 00:38:23;;;;;;;4.28;1.85;;;20.50;80.10;;;;;;5097374;28;20054;-71
2021/07/14 00:40:49;;;;;;;4.85;1.70;;;20.50;80.30;;;;;;5097678;28;20031;-71
2021/07/14 00:43:15;;;;;;;3.65;1.63;;;20.50;80.90;;;;;;5097389;28;20153;-71
2021/07/14 00:45:40;;;;;;;5.57;1.95;;;20.60;81.10;;;;;;5097264;28;20066;-71
2021/07/14 00:48:07;;;;;;;3.05;1.60;;;20.80;81.40;;;;;;5097529;28;20026;-71
2021/07/14 00:50:34;;;;;;;6.80;2.33;;;20.80;79.70;;;;;;5097183;28;20047;-71
2021/07/14 00:53:00;;;;;;;6.32;2.00;;;20.80;79.40;;;;;;5097341;28;20028;-71
2021/07/14 00:55:26;;;;;;;5.63;1.80;;;20.80;79.90;;;;;;5097095;28;20028;-71
2021/07/14 00:57:51;;;;;;;6.82;1.95;;;20.70;80.40;;;;;;5097412;28;20012;-71
2021/07/14 01:00:17;;;;;;;4.10;2.03;;;20.70;81.60;;;;;;5097007;28;20123;-71
2021/07/14 01:02:43;;;;;;;6.57;1.83;;;20.70;82.40;;;;;;5097289;28;20024;-71
2021/07/14 01:05:31;;;;;;;4.55;1.83;;;20.80;82.50;;;;;;5096952;28;20028;-71
2021/07/14 01:08:28;;;;;;;4.20;1.80;;;20.70;83.20;;;;;;5097313;28;20020;-70
2021/07/14 01:11:03;;;;;;;4.97;1.60;;;20.60;83.70;;;;;;5095793;28;20166;-71
2021/07/14 01:13:54;;;;;;;7.00;1.80;;;20.60;82.40;;;;;;5096923;28;20039;-71
2021/07/14 01:16:23;;;;;;;5.45;1.92;;;20.60;83.10;;;;;;5085931;28;20332;-71
2021/07/14 01:18:58;;;;;;;6.20;1.95;;;20.60;82.30;;;;;;5097071;28;20016;-71
2021/07/14 01:21:35;;;;;;;4.67;1.70;;;20.50;82.70;;;;;;5096779;28;20028;-71
2021/07/14 01:24:10;;;;;;;3.58;1.85;;;20.50;82.20;;;;;;5097077;28;20049;-71
2021/07/14 01:27:06;;;;;;;6.77;2.00;;;20.60;82.60;;;;;;5096730;28;20035;-71
2021/07/14 01:29:35;;;;;;;4.18;1.67;;;20.60;82.90;;;;;;5097048;28;20028;-71
2021/07/14 01:32:05;;;;;;;5.47;1.83;;;20.40;82.60;;;;;;5096908;28;20327;-71
2021/07/14 01:34:32;;;;;;;8.02;2.45;;;20.40;82.90;;;;;;5098322;28;20048;-71
2021/07/14 01:37:00;;;;;;;5.97;2.08;;;20.40;83.50;;;;;;5101157;28;20101;-71
2021/07/14 01:39:28;;;;;;;4.55;1.83;;;20.30;83.90;;;;;;5100702;28;20042;-71
2021/07/14 01:41:55;;;;;;;6.68;2.33;;;20.20;85.10;;;;;;5100696;28;20438;-71
2021/07/14 01:44:25;;;;;;;4.28;1.80;;;20.10;86.30;;;;;;5101105;28;20115;-71
2021/07/14 01:46:57;;;;;;;6.10;1.77;;;20.00;84.40;;;;;;5100966;28;20047;-71
2021/07/14 01:49:26;;;;;;;2.75;1.40;;;19.80;84.70;;;;;;5100694;28;20016;-71
2021/07/14 01:51:57;;;;;;;4.43;1.50;;;19.70;84.80;;;;;;5100853;28;20028;-71
2021/07/14 01:54:24;;;;;;;5.65;1.90;;;19.50;84.70;;;;;;5100880;28;20024;-71
2021/07/14 01:56:52;;;;;;;3.25;1.63;;;19.40;85.00;;;;;;5100800;28;20066;-71
2021/07/14 01:59:20;;;;;;;5.75;1.60;;;19.20;83.90;;;;;;5100763;28;20024;-71
2021/07/14 02:01:46;;;;;;;4.00;1.85;;;19.20;84.00;;;;;;5100428;28;20469;-71
2021/07/14 02:04:32;;;;;;;3.85;1.90;;;19.20;84.10;;;;;;5100658;28;20053;-70
2021/07/14 02:07:06;;;;;;;5.72;2.28;;;19.20;84.20;;;;;;5100633;28;20020;-71
2021/07/14 02:09:34;;;;;;;4.57;1.77;;;19.20;86.30;;;;;;5100359;28;20404;-71
2021/07/14 02:12:03;;;;;;;7.00;2.28;;;19.10;87.30;;;;;;5100437;28;20044;-71
2021/07/14 02:14:37;;;;;;;4.53;2.33;;;19.00;88.50;;;;;;5100581;28;20062;-70
2021/07/14 02:17:18;;;;;;;6.90;2.20;;;18.90;89.50;;;;;;5100396;28;20042;-71
2021/07/14 02:19:56;;;;;;;4.05;2.20;;;18.90;89.90;;;;;;5100401;28;20031;-71
2021/07/14 02:22:22;;;;;;;5.32;2.28;;;18.90;90.20;;;;;;5100076;28;20027;-71
2021/07/14 02:24:48;;;;;;;5.35;2.65;;;18.90;90.20;;;;;;5099832;28;20412;-71
2021/07/14 02:27:16;;;;;;;7.47;2.25;;;18.80;90.80;;;;;;5099860;28;20031;-71
2021/07/14 02:29:41;;;;;;;6.22;2.72;;;18.90;90.60;;;;;;5099825;28;20039;-71
2021/07/14 02:32:12;;;;;;;11.48;2.50;;;19.00;90.40;;;;;;5099980;28;20028;-71
2021/07/14 02:34:37;;;;;;;5.18;2.45;;;18.90;90.60;;;;;;5100117;28;20375;-71
2021/07/14 02:37:08;;;;;;;9.23;2.70;;;18.80;91.10;;;;;;5100024;28;20055;-71
2021/07/14 02:39:35;;;;;;;5.32;2.50;;;18.70;91.60;;;;;;5099590;28;20324;-71
2021/07/14 02:42:07;;;;;;;8.68;3.03;;;18.60;92.00;;;;;;5099935;28;20343;-71
2021/07/14 02:44:39;;;;;;;7.95;2.63;;;18.60;92.20;;;;;;5099240;28;20412;-71
2021/07/14 02:47:07;;;;;;;9.70;2.63;;;18.50;92.50;;;;;;5099550;28;20424;-71
2021/07/14 02:49:38;;;;;;;6.80;3.10;;;18.50;92.60;;;;;;5099791;28;20107;-71
2021/07/14 02:52:09;;;;;;;5.60;2.53;;;18.50;92.70;;;;;;5099355;28;20070;-71
2021/07/14 02:54:39;;;;;;;7.25;2.40;;;18.60;92.60;;;;;;5099690;28;20101;-71
2021/07/14 02:57:07;;;;;;;5.20;2.80;;;18.80;92.40;;;;;;5099597;28;20012;-71
2021/07/14 02:59:38;;;;;;;6.55;2.40;;;18.80;91.50;;;;;;5099876;28;20313;-71
2021/07/14 03:02:05;;;;;;;5.75;1.98;;;18.80;89.70;;;;;;5099341;28;20024;-71
2021/07/14 03:04:37;;;;;;;4.43;1.83;;;18.70;87.00;;;;;;5099133;28;20336;-71
2021/07/14 03:07:09;;;;;;;11.88;2.20;;;18.70;87.00;;;;;;5099162;28;20066;-71
2021/07/14 03:09:41;;;;;;;5.07;1.83;;;18.70;87.70;;;;;;5099094;28;20034;-71
2021/07/14 03:12:12;;;;;;;5.40;2.33;;;18.80;87.40;;;;;;5098898;28;20032;-71
2021/07/14 03:14:43;;;;;;;4.68;2.20;;;18.80;87.30;;;;;;5099467;28;20024;-71
2021/07/14 03:17:11;;;;;;;7.60;2.20;;;18.70;87.70;;;;;;5099268;28;20027;-71
2021/07/14 03:19:39;;;;;;;5.57;2.08;;;18.60;88.20;;;;;;5099239;28;20020;-71
2021/07/14 03:22:05;;;;;;;7.90;2.10;;;18.50;88.90;;;;;;5099317;28;20359;-71
2021/07/14 03:24:34;;;;;;;4.55;1.90;;;18.50;89.10;;;;;;5099086;28;20020;-71
2021/07/14 03:27:03;;;;;;;5.00;2.10;;;18.40;88.80;;;;;;5099058;28;20320;-71
2021/07/14 03:29:29;;;;;;;4.38;1.90;;;18.40;89.10;;;;;;5099027;28;20020;-71
2021/07/14 03:31:55;;;;;;;4.13;2.00;;;18.50;90.00;;;;;;5098638;28;20491;-70
2021/07/14 03:34:21;;;;;;;4.30;2.00;;;18.50;90.00;;;;;;5098924;28;20078;-71
2021/07/14 03:36:49;;;;;;;6.05;2.05;;;18.60;90.00;;;;;;5098864;28;20036;-71
2021/07/14 03:39:16;;;;;;;5.78;2.00;;;18.70;89.40;;;;;;5098278;28;20040;-71
2021/07/14 03:41:43;;;;;;;5.60;2.05;;;18.70;88.90;;;;;;5098789;28;20024;-71
2021/07/14 03:44:10;;;;;;;3.40;1.85;;;18.70;88.70;;;;;;5098840;28;20081;-71
2021/07/14 03:46:36;;;;;;;3.88;1.80;;;18.80;89.00;;;;;;5098347;28;20035;-71
2021/07/14 03:49:02;;;;;;;5.28;2.13;;;18.90;88.40;;;;;;5098665;28;20028;-71
2021/07/14 03:51:30;;;;;;;4.43;1.80;;;18.90;88.90;;;;;;5098290;28;20422;-71
2021/07/14 03:53:56;;;;;;;6.80;2.10;;;19.00;89.80;;;;;;5098187;28;20028;-71
2021/07/14 03:56:24;;;;;;;4.88;1.70;;;19.10;89.60;;;;;;5097719;28;20404;-71
2021/07/14 03:58:51;;;;;;;5.65;2.30;;;19.20;89.30;;;;;;5098012;28;20020;-71
2021/07/14 04:01:18;;;;;;;4.45;2.28;;;19.30;88.90;;;;;;5098386;28;20036;-71
2021/07/14 04:03:44;;;;;;;3.63;1.90;;;19.40;89.30;;;;;;5098075;28;20024;-71
2021/07/14 04:06:13;;;;;;;3.67;1.90;;;19.40;89.30;;;;;;5098277;28;20024;-71
2021/07/14 04:09:03;;;;;;;8.95;2.10;;;19.40;88.90;;;;;;5098263;28;20024;-71
2021/07/14 04:11:30;;;;;;;3.75;3.10;;;19.50;89.30;;;;;;5097977;28;20028;-71
2021/07/14 04:13:55;;;;;;;4.32;1.70;;;19.30;89.40;;;;;;5098147;28;20029;-71
2021/07/14 04:16:21;;;;;;;4.75;2.20;;;19.30;90.10;;;;;;5097983;28;20050;-71
2021/07/14 04:18:46;;;;;;;5.82;2.50;;;19.30;90.20;;;;;;5098101;28;20375;-71
2021/07/14 04:21:12;;;;;;;5.05;2.60;;;19.40;90.30;;;;;;5097719;28;20107;-71
2021/07/14 04:23:38;;;;;;;4.50;2.25;;;19.50;90.10;;;;;;5097639;28;20111;-71
2021/07/14 04:26:03;;;;;;;5.82;2.15;;;19.60;89.20;;;;;;5097645;28;20056;-71
2021/07/14 04:28:29;;;;;;;5.35;1.83;;;19.70;89.80;;;;;;5097904;28;20028;-71
2021/07/14 04:30:54;;;;;;;8.75;2.75;;;19.80;90.10;;;;;;5097864;28;20028;-71
2021/07/14 04:33:20;;;;;;;6.18;1.58;;;19.90;90.30;;;;;;5097712;28;20028;-71
2021/07/14 04:35:47;;;;;;;6.50;2.42;;;19.90;89.80;;;;;;5097789;28;20389;-71
2021/07/14 04:38:12;;;;;;;5.00;2.00;;;20.00;89.80;;;;;;5097254;28;20040;-71
2021/07/14 04:40:38;;;;;;;7.32;2.45;;;20.00;89.20;;;;;;5097713;28;20028;-71
2021/07/14 04:43:03;;;;;;;6.78;2.50;;;20.10;88.70;;;;;;5097671;28;20313;-71
2021/07/14 04:45:29;;;;;;;4.72;1.70;;;20.10;88.00;;;;;;5097573;28;20400;-71
2021/07/14 04:47:55;;;;;;;7.00;1.92;;;20.10;87.70;;;;;;5097609;28;20020;-71
2021/07/14 04:50:20;;;;;;;5.45;1.95;;;20.00;86.20;;;;;;5097567;28;20103;-71
2021/07/14 04:52:46;;;;;;;4.05;1.52;;;20.00;85.90;;;;;;5097290;28;20355;-71
2021/07/14 04:55:12;;;;;;;4.82;1.90;;;20.00;85.70;;;;;;5097097;28;20024;-71
2021/07/14 04:57:37;;;;;;;5.63;1.65;;;20.00;86.80;;;;;;5097455;28;20024;-71
2021/07/14 05:00:05;;;;;;;7.50;2.17;;;20.00;87.10;;;;;;5097247;28;20043;-71
2021/07/14 05:02:31;;;;;;;6.55;2.30;;;19.90;87.40;;;;;;5097324;28;20043;-71
2021/07/14 05:04:57;;;;;;;5.10;2.20;;;19.90;87.80;;;;;;5097336;28;20383;-71
2021/07/14 05:07:23;;;;;;;4.47;2.30;;;19.90;88.80;;;;;;5097178;28;20031;-71
2021/07/14 05:09:49;;;;;;;2.97;1.80;;;19.90;89.50;;;;;;5096892;28;20032;-71
2021/07/14 05:12:15;;;;;;;4.97;2.22;;;19.90;89.70;;;;;;5097111;28;20031;-71
2021/07/14 05:14:41;;;;;;;10.05;2.40;;;19.90;89.60;;;;;;5096784;28;20028;-71
2021/07/14 05:17:06;;;;;;;6.22;1.80;;;19.90;89.30;;;;;;5096804;28;20024;-71
2021/07/14 05:19:32;;;;;;;9.10;3.00;;;20.00;89.20;;;;;;5097001;28;20027;-71
2021/07/14 05:21:58;;;;;;;5.47;2.40;;;20.00;88.50;;;;;;5096935;28;20412;-71
2021/07/14 05:24:23;;;;;;;5.95;2.17;;;20.00;89.50;;;;;;5097050;28;20404;-71
2021/07/14 05:26:49;;;;;;;5.65;2.15;;;20.00;89.70;;;;;;5096918;28;20020;-71
2021/07/14 05:29:14;;;;;;;6.65;2.13;;;20.10;90.00;;;;;;5097059;28;20400;-71
2021/07/14 05:31:40;;;;;;;5.22;2.40;;;20.10;89.90;;;;;;5096699;28;20016;-71
2021/07/14 05:34:06;;;;;;;5.85;2.40;;;20.10;89.50;;;;;;5096559;28;20031;-71
2021/07/14 05:36:31;;;;;;;4.20;2.40;;;20.20;89.90;;;;;;5096958;28;20020;-71
2021/07/14 05:38:58;;;;;;;6.63;2.53;;;20.20;89.90;;;;;;5096451;28;20381;-71
2021/07/14 05:41:25;;;;;;;4.82;2.25;;;20.30;88.60;;;;;;5096921;28;20316;-71
2021/07/14 05:43:50;;;;;;;6.60;2.50;;;20.40;88.50;;;;;;5096908;28;20038;-71
2021/07/14 05:46:16;;;;;;;4.55;2.22;;;20.50;88.70;;;;;;5096539;28;20472;-71
2021/07/14 05:48:42;;;;;;;8.73;2.33;;;20.60;88.10;;;;;;5096782;28;20073;-71
2021/07/14 05:51:08;;;;;;;7.40;2.35;;;20.60;88.90;;;;;;5096832;28;20308;-71
2021/07/14 05:53:33;;;;;;;4.72;2.10;;;20.70;87.60;;;;;;5096655;28;20039;-71
2021/07/14 05:55:59;;;;;;;3.85;2.08;;;20.70;88.10;;;;;;5096650;28;20020;-71
2021/07/14 05:58:25;;;;;;;4.63;1.98;;;20.70;88.20;;;;;;5096771;28;20408;-71
2021/07/14 06:00:50;;;;;;;6.03;2.47;;;20.60;87.80;;;;;;5096736;28;20020;-71
2021/07/14 06:03:16;;;;;;;8.18;2.35;;;20.60;88.90;;;;;;5096581;28;20032;-71
2021/07/14 06:05:41;;;;;;;8.13;2.15;;;20.60;87.40;;;;;;5096660;28;20028;-71
2021/07/14 06:08:07;;;;;;;5.22;1.73;;;20.60;88.50;;;;;;5096656;28;20431;-71
2021/07/14 06:10:33;;;;;;;8.10;1.88;;;20.70;88.60;;;;;;5096618;28;20298;-71
2021/07/14 06:12:59;;;;;;;5.18;2.13;;;20.90;87.50;;;;;;5096479;28;20097;-71
2021/07/14 06:15:28;;;;;;;10.95;2.33;;;21.00;85.20;;;;;;5096569;28;20086;-71
2021/07/14 06:17:55;;;;;;;5.35;2.15;;;20.90;84.10;;;;;;5096336;28;20023;-71
2021/07/14 06:20:22;;;;;;;5.50;2.20;;;20.90;85.80;;;;;;5097825;28;20316;-71
2021/07/14 06:22:48;;;;;;;8.15;1.90;;;20.90;84.60;;;;;;5099994;28;20084;-71
2021/07/14 06:25:14;;;;;;;8.25;2.17;;;20.90;85.70;;;;;;5082132;28;20105;-71
2021/07/14 06:27:42;;;;;;;9.20;2.95;;;21.00;86.50;;;;;;5099351;28;20437;-71
2021/07/14 06:30:09;;;;;;;2.55;1.58;;;21.10;84.90;;;;;;5100168;28;20094;-71
2021/07/14 06:32:36;;;;;;;6.57;2.03;;;21.10;85.40;;;;;;5099736;28;20082;-71
2021/07/14 06:35:03;;;;;;;4.57;2.38;;;21.10;85.40;;;;;;5099853;28;20436;-71
2021/07/14 06:37:29;;;;;;;3.33;2.00;;;21.00;85.70;;;;;;5099776;28;20020;-71
2021/07/14 06:39:55;;;;;;;4.32;2.03;;;21.00;86.10;;;;;;5099767;28;20123;-71
2021/07/14 06:42:20;;;;;;;3.10;1.98;;;21.20;86.40;;;;;;5099636;28;20028;-71
2021/07/14 06:44:46;;;;;;;5.40;2.30;;;21.90;84.40;;;;;;5099529;28;20033;-71
2021/07/14 06:47:13;;;;;;;3.17;1.60;;;23.10;81.80;;;;;;5099534;28;20032;-71
2021/07/14 06:49:39;;;;;;;5.75;2.15;;;24.40;78.70;;;;;;5099478;28;20036;-71
2021/07/14 06:52:05;;;;;;;7.00;2.13;;;25.50;73.30;;;;;;5099734;28;20316;-71
2021/07/14 06:54:30;;;;;;;7.05;2.33;;;26.00;70.80;;;;;;5099425;28;20028;-71
2021/07/14 06:56:57;;;;;;;7.40;1.98;;;26.40;69.40;;;;;;5099378;28;20030;-71
2021/07/14 06:59:22;;;;;;;5.68;1.70;;;26.70;68.30;;;;;;5099653;28;20024;-71
2021/07/14 07:01:48;;;;;;;5.30;1.70;;;26.90;69.00;;;;;;5099625;28;20051;-71
2021/07/14 07:04:14;;;;;;;5.20;1.98;;;27.10;66.80;;;;;;5099240;28;20420;-71
2021/07/14 07:06:40;;;;;;;9.40;2.10;;;27.20;67.50;;;;;;5099167;28;20031;-71
2021/07/14 07:09:07;;;;;;;5.70;2.03;;;27.50;67.10;;;;;;5099449;28;20060;-71
2021/07/14 07:11:35;;;;;;;5.45;2.28;;;27.70;65.80;;;;;;5099120;28;20476;-71
2021/07/14 07:14:04;;;;;;;4.32;2.08;;;27.40;65.80;;;;;;5099214;28;20043;-71
2021/07/14 07:16:30;;;;;;;5.88;2.03;;;26.90;67.70;;;;;;5099023;28;20450;-71
2021/07/14 07:18:56;;;;;;;6.32;1.80;;;27.30;66.90;;;;;;5099216;28;20025;-71
2021/07/14 07:21:23;;;;;;;5.40;1.73;;;27.70;64.90;;;;;;5099259;28;20028;-71
2021/07/14 07:23:49;;;;;;;4.93;1.77;;;27.90;65.50;;;;;;5098866;28;20476;-71
2021/07/14 07:26:15;;;;;;;4.00;1.92;;;28.20;63.90;;;;;;5098822;28;20102;-71
2021/07/14 07:28:42;;;;;;;3.92;1.30;;;28.60;63.70;;;;;;5098917;28;20103;-71
2021/07/14 07:31:11;;;;;;;3.67;1.73;;;29.10;62.80;;;;;;5098136;28;20032;-71
2021/07/14 07:33:38;;;;;;;6.10;1.65;;;29.10;62.30;;;;;;5098444;28;20367;-71
2021/07/14 07:36:05;;;;;;;3.63;1.40;;;28.70;63.50;;;;;;5098978;28;20101;-71
2021/07/14 07:38:33;;;;;;;6.32;1.75;;;27.80;64.70;;;;;;5098444;28;20096;-71
2021/07/14 07:40:59;;;;;;;4.50;1.70;;;26.90;68.30;;;;;;5098493;28;20024;-71
2021/07/14 07:43:28;;;;;;;4.00;1.58;;;26.40;67.90;;;;;;5098617;28;20032;-71
2021/07/14 07:45:54;;;;;;;2.72;1.40;;;26.10;68.10;;;;;;5098737;28;20332;-71
2021/07/14 07:48:20;;;;;;;6.07;1.73;;;25.70;70.30;;;;;;5098569;28;20030;-71
2021/07/14 07:50:48;;;;;;;4.53;1.85;;;26.20;71.50;;;;;;5098390;28;20385;-71
2021/07/14 07:53:20;;;;;;;4.18;1.75;;;27.10;68.20;;;;;;5098364;28;20052;-71
2021/07/14 07:55:47;;;;;;;3.80;1.60;;;27.40;66.10;;;;;;5098540;28;20020;-71
2021/07/14 07:58:14;;;;;;;3.95;1.80;;;26.90;66.90;;;;;;5098168;28;20111;-71
2021/07/14 08:00:40;;;;;;;4.32;1.63;;;26.40;67.30;;;;;;5098438;28;20099;-71
2021/07/14 08:03:05;;;;;;;4.82;1.77;;;26.60;69.40;;;;;;5098116;28;20131;-71
2021/07/14 08:05:31;;;;;;;5.90;2.17;;;27.20;68.10;;;;;;5098246;28;20024;-71
2021/07/14 08:07:57;;;;;;;4.47;1.85;;;27.00;66.50;;;;;;5098216;28;20416;-71
2021/07/14 08:10:22;;;;;;;4.65;1.88;;;26.30;69.10;;;;;;5098261;28;20107;-71
2021/07/14 08:12:48;;;;;;;7.45;2.00;;;25.50;70.80;;;;;;5098028;28;20032;-71
2021/07/14 08:15:14;;;;;;;6.35;1.88;;;24.80;73.80;;;;;;5097838;28;20452;-71
2021/07/14 08:17:40;;;;;;;6.20;2.38;;;24.90;74.00;;;;;;5098171;28;20048;-71
2021/07/14 08:20:08;;;;;;;6.68;2.15;;;25.40;71.60;;;;;;5080246;28;20099;-71
2021/07/14 08:22:34;;;;;;;5.03;1.95;;;25.50;70.00;;;;;;5097920;28;20408;-71
2021/07/14 08:25:00;;;;;;;8.02;1.83;;;26.40;68.40;;;;;;5097581;28;20028;-71
2021/07/14 08:27:26;;;;;;;5.32;2.05;;;27.20;69.20;;;;;;5097889;28;20035;-71
2021/07/14 08:29:54;;;;;;;10.63;2.33;;;27.90;67.20;;;;;;5097606;28;20024;-71
2021/07/14 08:32:19;;;;;;;6.28;2.22;;;28.50;62.20;;;;;;5097431;28;20035;-71
2021/07/14 08:34:45;;;;;;;6.50;2.50;;;28.20;63.60;;;;;;5097842;28;20024;-71
2021/07/14 08:37:11;;;;;;;4.53;1.85;;;27.30;65.50;;;;;;5097429;28;20312;-71
2021/07/14 08:39:36;;;;;;;5.78;2.05;;;26.50;69.50;;;;;;5097241;28;20051;-71
2021/07/14 08:42:04;;;;;;;6.38;2.30;;;25.90;70.70;;;;;;5097715;28;20032;-71
2021/07/14 08:44:30;;;;;;;7.13;2.00;;;25.30;71.90;;;;;;5097553;28;20119;-71
2021/07/14 08:46:57;;;;;;;4.85;1.90;;;24.90;74.40;;;;;;5097272;28;20039;-71
2021/07/14 08:49:23;;;;;;;4.10;1.73;;;24.60;74.70;;;;;;5097243;28;20078;-71
2021/07/14 08:51:52;;;;;;;4.97;1.92;;;24.50;75.40;;;;;;5097642;28;20028;-71
2021/07/14 08:54:19;;;;;;;5.78;2.40;;;24.40;75.90;;;;;;5097113;28;20028;-71
2021/07/14 08:56:44;;;;;;;4.45;2.03;;;24.70;75.00;;;;;;5097434;28;20099;-71
2021/07/14 08:59:10;;;;;;;7.38;3.05;;;24.90;76.90;;;;;;5097425;28;20107;-71
2021/07/14 09:01:36;;;;;;;7.47;2.60;;;25.60;72.20;;;;;;5096949;28;20408;-71
2021/07/14 09:04:03;;;;;;;5.32;2.60;;;26.40;72.00;;;;;;5096984;28;20051;-71
2021/07/14 09:06:30;;;;;;;7.40;2.58;;;27.20;70.00;;;;;;5096947;28;20051;-71
2021/07/14 09:08:56;;;;;;;7.20;2.38;;;28.20;68.00;;;;;;5097304;28;20038;-71
2021/07/14 09:11:22;;;;;;;9.68;2.55;;;28.70;68.30;;;;;;5097287;28;20028;-71
2021/07/14 09:13:47;;;;;;;11.75;2.42;;;29.20;67.20;;;;;;5097122;28;20069;-71
2021/07/14 09:16:35;;;;;;;9.77;2.70;;;28.80;65.90;;;;;;5097175;28;20111;-71
2021/07/14 09:19:14;;;;;;;9.05;2.83;;;27.60;65.20;;;;;;5097180;28;20028;-71
2021/07/14 09:21:43;;;;;;;6.50;2.70;;;26.70;69.50;;;;;;5097138;28;20024;-71
2021/07/14 09:24:32;;;;;;;8.23;3.15;;;26.00;71.90;;;;;;5097031;28;20024;-71
2021/07/14 09:27:01;;;;;;;10.55;3.53;;;25.40;73.30;;;;;;5096993;28;20077;-71
2021/07/14 09:29:27;;;;;;;7.50;2.58;;;25.00;74.50;;;;;;5096925;28;20056;-71
2021/07/14 09:31:54;;;;;;;8.52;2.80;;;25.00;77.10;;;;;;5096706;28;20023;-71
2021/07/14 09:34:29;;;;;;;6.20;2.47;;;25.50;75.40;;;;;;5096561;28;20036;-71
2021/07/14 09:37:02;;;;;;;7.43;2.95;;;25.90;73.30;;;;;;5096983;28;20016;-71
2021/07/14 09:39:39;;;;;;;7.65;3.08;;;25.80;70.70;;;;;;5096473;28;20066;-71
2021/07/14 09:42:10;;;;;;;7.07;2.78;;;25.90;72.00;;;;;;5096494;28;20027;-71
2021/07/14 09:44:50;;;;;;;6.97;2.58;;;25.90;70.70;;;;;;5097056;28;20032;-71
2021/07/14 09:47:18;;;;;;;9.95;2.85;;;25.40;72.80;;;;;;5078688;28;20359;-71
2021/07/14 09:49:46;;;;;;;7.10;2.65;;;25.10;73.10;;;;;;5096522;28;20032;-71
2021/07/14 09:52:18;;;;;;;6.20;2.70;;;24.70;73.90;;;;;;5096744;28;20017;-71
2021/07/14 09:54:44;;;;;;;9.85;2.95;;;24.40;75.20;;;;;;5096838;28;20454;-70
2021/07/14 09:57:15;;;;;;;12.95;3.25;;;24.50;76.60;;;;;;5100831;28;20044;-71
2021/07/14 09:59:41;;;;;;;8.90;2.78;;;24.80;75.00;;;;;;5100171;28;20032;-71
2021/07/14 10:02:11;;;;;;;8.50;3.28;;;24.80;74.70;;;;;;5100816;28;20023;-71
2021/07/14 10:04:37;;;;;;;11.65;3.70;;;24.70;74.50;;;;;;5100363;28;20035;-71
2021/07/14 10:07:05;;;;;;;15.05;3.70;;;24.50;74.80;;;;;;5100641;28;20032;-71
2021/07/14 10:09:31;;;;;;;5.65;2.85;;;24.60;77.60;;;;;;5100322;28;20447;-71
2021/07/14 10:12:27;;;;;;;7.05;3.47;;;24.40;74.70;;;;;;5100255;28;20031;-71
2021/07/14 10:14:57;;;;;;;6.25;2.72;;;24.20;71.70;;;;;;5100778;28;20032;-71
2021/07/14 10:17:40;;;;;;;9.43;3.47;;;24.10;72.50;;;;;;5099838;28;20024;-71
2021/07/14 10:20:21;;;;;;;8.55;3.10;;;23.80;73.00;;;;;;5104235;28;20316;-71
2021/07/14 10:22:55;;;;;;;7.55;2.63;;;23.60;74.40;;;;;;5120592;28;20039;-71
2021/07/14 10:25:22;;;;;;;6.43;3.08;;;23.40;75.00;;;;;;5120706;28;20027;-71
2021/07/14 10:27:50;;;;;;;16.58;4.20;;;23.20;72.10;;;;;;5120355;28;20499;-71
2021/07/14 10:30:17;;;;;;;13.25;4.70;;;22.90;75.50;;;;;;5120217;28;20019;-71
2021/07/14 10:32:44;;;;;;;10.52;4.15;;;22.20;82.60;;;;;;5120236;28;20110;-71
2021/07/14 10:35:11;;;;;;;14.25;4.55;;;21.50;86.20;;;;;;5120497;28;20020;-71
2021/07/14 10:37:49;;;;;;;9.77;4.60;;;21.00;89.10;;;;;;5120031;28;20063;-71
2021/07/14 10:40:17;;;;;;;11.02;5.43;;;20.50;90.00;;;;;;5120200;28;20032;-71
2021/07/14 10:42:45;;;;;;;10.68;5.65;;;20.40;93.60;;;;;;5120043;28;20063;-71
2021/07/14 10:45:12;;;;;;;8.63;5.43;;;20.40;93.60;;;;;;5120263;28;20351;-71
2021/07/14 10:47:38;;;;;;;9.80;6.47;;;20.50;93.50;;;;;;5120335;28;20305;-71
2021/07/14 10:50:05;;;;;;;8.52;4.88;;;20.50;94.60;;;;;;5109801;28;20075;-71
2021/07/14 10:52:32;;;;;;;9.02;4.95;;;20.50;92.70;;;;;;5118149;28;20038;-71
2021/07/14 10:55:00;;;;;;;11.73;5.57;;;20.50;91.90;;;;;;5120197;28;20012;-71
2021/07/14 10:57:27;;;;;;;8.65;4.30;;;20.50;92.90;;;;;;5119788;28;20019;-71
2021/07/14 10:59:53;;;;;;;7.53;3.47;;;20.70;91.50;;;;;;5120088;28;20028;-71
2021/07/14 11:02:38;;;;;;;5.28;3.28;;;20.90;90.00;;;;;;5120039;28;20073;-71
2021/07/14 11:05:04;;;;;;;8.52;3.38;;;21.20;89.10;;;;;;5120027;28;20079;-71
2021/07/14 11:07:38;;;;;;;8.25;3.58;;;21.60;88.20;;;;;;5119871;28;20045;-71
2021/07/14 11:10:40;;;;;;;7.47;3.47;;;22.00;83.10;;;;;;5119568;28;20111;-71
2021/07/14 11:13:29;;;;;;;15.80;5.72;;;22.30;86.70;;;;;;5119520;28;20059;-71
2021/07/14 11:16:16;;;;;;;7.22;3.13;;;22.30;85.10;;;;;;5119774;28;20028;-71
2021/07/14 11:18:41;;;;;;;8.55;3.10;;;21.90;86.30;;;;;;5115685;28;20028;-71
2021/07/14 11:21:08;;;;;;;7.07;3.10;;;21.70;87.30;;;;;;5110064;28;20073;-71
2021/07/14 11:23:34;;;;;;;12.77;4.47;;;21.60;86.40;;;;;;5119658;28;20440;-71
2021/07/14 11:26:03;;;;;;;6.47;3.25;;;21.50;88.40;;;;;;5119597;28;20031;-71
2021/07/14 11:28:31;;;;;;;5.95;2.95;;;21.60;88.00;;;;;;5119560;28;20397;-71
2021/07/14 11:31:08;;;;;;;7.63;3.80;;;21.60;88.20;;;;;;5119209;28;20024;-71
2021/07/14 11:33:36;;;;;;;14.30;3.67;;;21.50;89.60;;;;;;5119421;28;20050;-71
2021/07/14 11:36:10;;;;;;;6.78;3.03;;;21.50;90.30;;;;;;5119419;28;20012;-71
2021/07/14 11:38:49;;;;;;;9.65;2.40;;;21.50;85.90;;;;;;5119100;28;20051;-71
2021/07/14 11:41:26;;;;;;;9.50;2.25;;;21.30;80.80;;;;;;5119306;28;20027;-71
2021/07/14 11:43:54;;;;;;;6.22;2.72;;;21.10;84.30;;;;;;5119390;28;20305;-71
2021/07/14 11:46:29;;;;;;;6.25;2.30;;;20.80;84.60;;;;;;5119180;28;20404;-71
2021/07/14 11:49:07;;;;;;;9.02;2.33;;;20.60;86.30;;;;;;5115327;28;20332;-71
2021/07/14 11:51:40;;;;;;;5.10;1.90;;;20.50;83.70;;;;;;5110043;28;20073;-70
2021/07/14 11:54:27;;;;;;;8.30;2.47;;;20.40;82.10;;;;;;5118650;28;20442;-71
2021/07/14 11:56:53;;;;;;;5.88;1.85;;;20.40;84.30;;;;;;5118638;28;20049;-71
2021/07/14 11:59:28;;;;;;;6.28;2.50;;;20.30;82.00;;;;;;5118957;28;20106;-71
2021/07/14 12:01:59;;;;;;;3.33;1.50;;;20.30;82.00;;;;;;5118944;28;20031;-71
2021/07/14 12:04:25;;;;;;;7.07;1.95;;;20.30;83.00;;;;;;5118867;28;20024;-71
2021/07/14 12:07:02;;;;;;;7.68;2.70;;;20.40;84.60;;;;;;5118781;28;20103;-71
2021/07/14 12:09:30;;;;;;;6.72;2.00;;;20.40;86.60;;;;;;5118768;28;20386;-71
2021/07/14 12:11:57;;;;;;;5.47;2.00;;;20.60;85.60;;;;;;5118661;28;20347;-71
2021/07/14 12:14:24;;;;;;;8.68;2.70;;;20.60;85.60;;;;;;5118213;28;20035;-71
2021/07/14 12:16:52;;;;;;;9.70;2.85;;;20.60;84.00;;;;;;5118546;28;20027;-71
2021/07/14 12:19:23;;;;;;;5.03;2.15;;;20.70;88.00;;;;;;5113905;28;20356;-71
2021/07/14 12:21:50;;;;;;;7.70;2.40;;;20.60;87.00;;;;;;5107935;28;20073;-71
2021/07/14 12:24:31;;;;;;;7.28;1.95;;;20.70;88.30;;;;;;5118418;28;20085;-71
2021/07/14 12:27:17;;;;;;;5.55;1.95;;;20.60;87.60;;;;;;5117629;28;20196;-71
2021/07/14 12:29:48;;;;;;;;;;;20.70;87.70;;;;;;5118771;28;20028;-71
2021/07/14 12:32:14;;;;;;;7.85;2.10;;;21.00;84.70;;;;;;5117895;28;19910;-71
2021/07/14 12:34:40;;;;;;;7.85;2.10;;;21.20;87.00;;;;;;5118195;28;20020;-71
2021/07/14 12:37:08;;;;;;;9.32;1.75;;;21.40;74.60;;;;;;5117821;28;20319;-71
2021/07/14 12:39:36;;;;;;;4.63;2.00;;;21.50;74.70;;;;;;5117759;28;20378;-71
2021/07/14 12:42:07;;;;;;;6.65;1.90;;;21.60;77.00;;;;;;5117878;28;20050;-71
2021/07/14 12:44:33;;;;;;;7.00;1.63;;;21.70;75.30;;;;;;5100216;28;20024;-71
2021/07/14 12:47:14;;;;;;;5.07;1.58;;;21.90;76.40;;;;;;5117998;28;20028;-71
2021/07/14 12:49:40;;;;;;;4.53;1.60;;;22.20;77.90;;;;;;5117963;28;20040;-71
2021/07/14 12:52:12;;;;;;;5.78;1.70;;;22.70;81.30;;;;;;5117641;28;20030;-71
2021/07/14 12:54:39;;;;;;;5.82;1.65;;;23.40;71.30;;;;;;5117626;28;20453;-71
2021/07/14 12:57:33;;;;;;;6.88;1.73;;;23.70;73.10;;;;;;5117518;28;20028;-71
2021/07/14 13:00:00;;;;;;;6.18;1.58;;;23.80;67.60;;;;;;5095570;28;20335;-71
2021/07/14 13:02:29;;;;;;;6.15;1.30;;;23.50;67.90;;;;;;5117465;28;20034;-71